Terminal Aerodrome Forecast
Issued by NWS

Home | Current Version | Previous Version | Text Only | Print | Product List | Glossary On
Versions: 1 2 3 4 5 6 7 8 9 10 11 12 13 14 15 16 17 18 19 20 21 22 23 24
000
FTUS46 KSEW 180300 AAA
TAFSEA
TAF AMD
KSEA 180302Z 1803/1906 VRB03KT 3SM -SHRA SCT008 OVC022
     FM180400 22013G22KT P6SM VCSH BKN035 BKN050
     FM180800 19011KT P6SM SCT028 SCT050
     FM181800 23008KT P6SM SCT050
     FM190000 32005KT P6SM SCT250=

USA.gov is the U.S. government's official web portal to all federal, state and local government web resources and services.